createdAt,value
2022-10-19T00:02:19.850Z,16.43
2022-10-19T00:04:46.441Z,16.26
2022-10-19T00:07:13.064Z,16.32
2022-10-19T00:09:39.847Z,16.56
2022-10-19T00:12:06.394Z,16.55
2022-10-19T00:14:33.045Z,16.54
2022-10-19T00:16:59.597Z,16.65
2022-10-19T00:19:27.714Z,16.69
2022-10-19T00:21:54.623Z,16.71
2022-10-19T00:24:21.574Z,16.61
2022-10-19T00:26:48.257Z,16.50
2022-10-19T00:29:15.446Z,16.66
2022-10-19T00:31:42.587Z,16.69
2022-10-19T00:34:09.712Z,16.65
2022-10-19T00:36:39.449Z,16.68
2022-10-19T00:39:08.657Z,16.77
2022-10-19T00:41:36.526Z,16.72
2022-10-19T00:44:13.820Z,16.58
2022-10-19T00:46:42.986Z,16.48
2022-10-19T00:49:15.817Z,16.55
2022-10-19T00:51:45.205Z,16.47
2022-10-19T00:54:12.322Z,16.27
2022-10-19T00:56:42.211Z,16.37
2022-10-19T00:59:10.330Z,16.27
2022-10-19T01:01:37.236Z,16.29
2022-10-19T01:04:04.918Z,16.30
2022-10-19T01:06:32.165Z,16.27
2022-10-19T01:08:58.827Z,16.22
2022-10-19T01:11:31.493Z,16.19
2022-10-19T01:14:22.862Z,16.14
2022-10-19T01:16:58.061Z,16.08
2022-10-19T01:19:50.509Z,15.87
2022-10-19T01:22:46.253Z,15.73
2022-10-19T01:25:18.560Z,15.48
2022-10-19T01:28:09.086Z,15.56
2022-10-19T01:30:54.507Z,15.47
2022-10-19T01:33:46.009Z,15.41
2022-10-19T01:36:31.180Z,15.39
2022-10-19T01:39:19.119Z,15.33
2022-10-19T01:41:54.869Z,15.53
2022-10-19T01:45:00.744Z,15.53
2022-10-19T01:47:34.207Z,15.55
2022-10-19T01:50:14.782Z,15.59
2022-10-19T01:52:43.058Z,15.65
2022-10-19T01:55:13.445Z,15.58
2022-10-19T01:57:45.902Z,15.54
2022-10-19T02:00:15.903Z,15.48
2022-10-19T02:02:46.743Z,15.54
2022-10-19T02:05:14.202Z,15.52
2022-10-19T02:07:44.535Z,15.40
2022-10-19T02:10:11.253Z,15.30
2022-10-19T02:12:38.333Z,15.32
2022-10-19T02:15:11.161Z,15.29
2022-10-19T02:17:44.093Z,15.66
2022-10-19T02:20:10.736Z,15.58
2022-10-19T02:22:37.485Z,15.57
2022-10-19T02:25:05.013Z,15.57
2022-10-19T02:27:31.596Z,15.72
2022-10-19T02:29:58.174Z,15.73
2022-10-19T02:32:25.968Z,15.71
2022-10-19T02:34:52.812Z,15.36
2022-10-19T02:37:22.057Z,15.34
2022-10-19T02:39:50.024Z,15.32
2022-10-19T02:42:22.604Z,15.42
2022-10-19T02:44:58.682Z,15.43
2022-10-19T02:47:31.173Z,15.55
2022-10-19T02:49:57.835Z,15.39
2022-10-19T02:52:24.346Z,15.29
2022-10-19T02:54:50.861Z,15.25
2022-10-19T02:57:23.920Z,15.22
2022-10-19T02:59:51.430Z,15.36
2022-10-19T03:02:19.599Z,15.35
2022-10-19T03:07:15.999Z,15.36
2022-10-19T03:09:43.661Z,15.25
2022-10-19T03:12:11.601Z,15.22
2022-10-19T03:14:38.174Z,15.25
2022-10-19T03:17:05.315Z,14.98
2022-10-19T03:19:32.315Z,15.15
2022-10-19T03:21:58.851Z,15.07
2022-10-19T03:24:25.702Z,14.94
2022-10-19T03:26:52.329Z,15.09
2022-10-19T03:29:19.036Z,14.94
2022-10-19T03:31:45.635Z,14.92
2022-10-19T03:34:12.165Z,14.71
2022-10-19T03:36:40.740Z,14.77
2022-10-19T03:39:11.476Z,14.58
2022-10-19T03:41:38.689Z,14.68
2022-10-19T03:44:07.385Z,14.69
2022-10-19T03:46:35.528Z,14.48
2022-10-19T03:49:02.407Z,14.60
2022-10-19T03:51:30.909Z,14.50
2022-10-19T03:54:00.085Z,14.32
2022-10-19T03:56:28.765Z,14.47
2022-10-19T03:58:56.869Z,14.50
2022-10-19T04:01:32.442Z,14.43
2022-10-19T04:04:01.344Z,14.53
2022-10-19T04:06:30.780Z,14.48
2022-10-19T04:08:57.907Z,14.25
2022-10-19T04:11:26.463Z,14.26
2022-10-19T04:13:54.517Z,14.41
2022-10-19T04:16:22.840Z,14.55
2022-10-19T04:18:49.505Z,14.49
2022-10-19T04:21:24.977Z,14.61
2022-10-19T04:23:53.327Z,14.83
2022-10-19T04:26:20.732Z,14.65
2022-10-19T04:28:47.421Z,14.64
2022-10-19T04:31:14.163Z,14.77
2022-10-19T04:33:41.823Z,14.78
2022-10-19T04:36:10.802Z,14.69
2022-10-19T04:38:37.864Z,14.69
2022-10-19T04:41:12.622Z,14.81
2022-10-19T04:43:39.590Z,14.78
2022-10-19T04:46:14.100Z,14.42
2022-10-19T04:48:41.522Z,14.48
2022-10-19T04:51:08.878Z,14.50
2022-10-19T04:53:38.084Z,14.46
2022-10-19T04:56:09.998Z,14.30
2022-10-19T04:58:36.538Z,14.48
2022-10-19T05:01:18.096Z,14.39
2022-10-19T05:03:45.345Z,14.38
2022-10-19T05:06:13.121Z,14.32
2022-10-19T05:08:40.140Z,14.38
2022-10-19T05:11:14.712Z,14.40
2022-10-19T05:13:42.507Z,14.13
2022-10-19T05:16:12.567Z,14.44
2022-10-19T05:18:39.485Z,14.42
2022-10-19T05:21:11.755Z,14.32
2022-10-19T05:23:39.432Z,14.33
2022-10-19T05:26:08.743Z,14.37
2022-10-19T05:28:36.519Z,14.17
2022-10-19T05:31:14.755Z,14.18
2022-10-19T05:33:42.276Z,13.59
2022-10-19T05:36:25.571Z,13.42
2022-10-19T05:38:53.220Z,13.27
2022-10-19T05:41:20.542Z,13.43
2022-10-19T05:43:53.698Z,13.58
2022-10-19T05:46:20.273Z,13.72
2022-10-19T05:48:47.629Z,13.81
2022-10-19T05:51:17.701Z,13.67
2022-10-19T05:53:44.614Z,13.69
2022-10-19T05:56:20.116Z,13.77
2022-10-19T05:58:47.320Z,13.90
2022-10-19T06:01:15.490Z,14.05
2022-10-19T06:03:42.094Z,14.16
2022-10-19T06:06:09.581Z,14.18
2022-10-19T06:08:37.235Z,14.08
2022-10-19T06:11:18.481Z,13.89
2022-10-19T06:13:46.795Z,13.96
2022-10-19T06:16:18.247Z,13.85
2022-10-19T06:18:44.975Z,13.84
2022-10-19T06:21:14.781Z,13.82
2022-10-19T06:26:11.859Z,14.48
2022-10-19T06:28:40.206Z,14.41
2022-10-19T06:31:09.258Z,14.39
2022-10-19T06:33:40.470Z,14.72
2022-10-19T06:36:16.350Z,14.77
2022-10-19T06:38:43.203Z,14.74
2022-10-19T06:41:11.711Z,14.69
2022-10-19T06:43:38.877Z,14.84
2022-10-19T06:46:07.732Z,14.52
2022-10-19T06:48:34.736Z,14.65
2022-10-19T06:51:06.291Z,14.64
2022-10-19T06:53:34.461Z,14.73
2022-10-19T06:56:03.252Z,14.67
2022-10-19T06:58:30.841Z,14.97
2022-10-19T07:01:01.493Z,15.04
2022-10-19T07:03:29.897Z,15.06
2022-10-19T07:06:01.455Z,15.01
2022-10-19T07:08:30.026Z,15.15
2022-10-19T07:10:59.359Z,15.30
2022-10-19T07:13:27.754Z,15.33
2022-10-19T07:16:17.983Z,15.35
2022-10-19T07:18:50.267Z,15.29
2022-10-19T07:21:17.887Z,15.59
2022-10-19T07:23:47.476Z,16.02
2022-10-19T07:26:15.515Z,16.68
2022-10-19T07:28:46.829Z,16.78
2022-10-19T07:31:17.988Z,16.73
2022-10-19T07:33:45.022Z,16.92
2022-10-19T07:36:13.613Z,17.56
2022-10-19T07:38:40.724Z,18.04
2022-10-19T07:41:12.696Z,18.60
2022-10-19T07:43:40.278Z,19.03
2022-10-19T07:46:11.134Z,19.35
2022-10-19T07:48:37.682Z,19.84
2022-10-19T07:51:06.548Z,20.30
2022-10-19T07:53:36.744Z,19.75
2022-10-19T07:56:09.115Z,19.39
2022-10-19T07:58:36.647Z,19.13
2022-10-19T08:01:06.299Z,19.40
2022-10-19T08:06:21.198Z,19.76
2022-10-19T08:08:49.022Z,19.79
2022-10-19T08:11:20.983Z,20.17
2022-10-19T08:13:48.446Z,20.86
2022-10-19T08:16:28.381Z,21.48
2022-10-19T08:19:00.603Z,21.58
2022-10-19T08:21:28.437Z,21.74
2022-10-19T08:23:55.304Z,21.80
2022-10-19T08:26:22.035Z,21.63
2022-10-19T08:28:48.762Z,21.07
2022-10-19T08:31:21.974Z,20.66
2022-10-19T08:33:51.948Z,20.73
2022-10-19T08:36:19.970Z,21.11
2022-10-19T08:38:48.451Z,21.36
2022-10-19T08:41:34.015Z,21.19
2022-10-19T08:44:12.795Z,21.12
2022-10-19T08:46:54.565Z,21.71
2022-10-19T08:49:25.953Z,22.42
2022-10-19T08:51:59.409Z,23.12
2022-10-19T08:54:37.839Z,23.50
2022-10-19T08:57:25.089Z,23.40
2022-10-19T09:00:10.812Z,23.72
2022-10-19T09:03:13.453Z,24.18
2022-10-19T09:06:20.012Z,24.55
2022-10-19T09:08:47.546Z,24.45
2022-10-19T09:11:17.481Z,24.35
2022-10-19T09:14:04.305Z,24.20
2022-10-19T09:16:33.063Z,23.29
2022-10-19T09:18:59.905Z,22.64
2022-10-19T09:21:46.316Z,22.23
2022-10-19T09:24:54.488Z,22.12
2022-10-19T09:27:30.128Z,22.14
2022-10-19T09:29:58.520Z,22.14
2022-10-19T09:32:33.938Z,22.05
2022-10-19T09:35:03.750Z,21.61
2022-10-19T09:37:34.467Z,21.26
2022-10-19T09:40:01.213Z,21.11
2022-10-19T09:42:36.875Z,20.98
2022-10-19T09:45:17.576Z,20.66
2022-10-19T09:47:48.245Z,20.53
2022-10-19T09:50:23.171Z,20.54
2022-10-19T09:52:53.667Z,20.48
2022-10-19T09:55:28.458Z,20.63
2022-10-19T09:58:14.711Z,20.86
2022-10-19T10:00:47.139Z,21.41
2022-10-19T10:03:24.382Z,22.04
2022-10-19T10:05:51.669Z,22.24
2022-10-19T10:08:21.825Z,22.17
2022-10-19T10:11:00.897Z,22.01
2022-10-19T10:13:28.142Z,21.72
2022-10-19T10:16:01.405Z,21.92
2022-10-19T10:18:29.604Z,22.30
2022-10-19T10:21:11.134Z,22.40
2022-10-19T10:23:38.499Z,22.51
2022-10-19T10:26:16.233Z,22.56
2022-10-19T10:28:50.723Z,22.83
2022-10-19T10:31:29.698Z,23.02
2022-10-19T10:34:10.913Z,23.24
2022-10-19T10:36:53.469Z,23.30
2022-10-19T10:39:20.366Z,23.17
2022-10-19T10:41:49.017Z,23.80
2022-10-19T10:44:20.740Z,24.83
2022-10-19T10:46:55.153Z,25.50
2022-10-19T10:49:28.327Z,25.08
2022-10-19T10:52:00.932Z,24.84
2022-10-19T10:54:32.577Z,25.10
2022-10-19T10:57:44.469Z,25.56
2022-10-19T11:00:20.596Z,25.90
2022-10-19T11:02:58.436Z,26.11
2022-10-19T11:05:40.046Z,26.08
2022-10-19T11:08:12.285Z,25.56
2022-10-19T11:10:49.705Z,25.22
2022-10-19T11:13:24.125Z,25.13
2022-10-19T11:16:23.037Z,25.13
2022-10-19T11:19:46.773Z,24.93
2022-10-19T11:22:40.825Z,25.51
2022-10-19T11:25:45.060Z,26.53
2022-10-19T11:28:49.534Z,27.56
2022-10-19T11:31:44.618Z,27.93
2022-10-19T11:34:26.238Z,28.40
2022-10-19T11:37:07.624Z,28.71
2022-10-19T11:39:41.976Z,28.86
2022-10-19T11:42:26.608Z,28.85
2022-10-19T11:46:00.548Z,28.52
2022-10-19T11:48:27.139Z,28.27
2022-10-19T11:51:17.383Z,28.24
2022-10-19T11:57:53.780Z,29.34
2022-10-19T12:00:38.226Z,29.88
2022-10-19T12:03:22.659Z,30.29
2022-10-19T12:06:06.866Z,30.42
2022-10-19T12:09:04.168Z,30.67
2022-10-19T12:11:36.737Z,30.87
2022-10-19T12:14:06.451Z,30.88
2022-10-19T12:16:40.383Z,30.47
2022-10-19T12:19:16.329Z,30.02
2022-10-19T12:21:44.133Z,29.57
2022-10-19T12:24:15.891Z,29.48
2022-10-19T12:26:44.844Z,29.41
2022-10-19T12:29:25.348Z,29.57
2022-10-19T12:31:53.892Z,29.82
2022-10-19T12:34:48.375Z,29.81
2022-10-19T12:37:23.796Z,29.73
2022-10-19T12:39:50.272Z,29.34
2022-10-19T12:42:35.337Z,28.70
2022-10-19T12:45:25.124Z,28.13
2022-10-19T12:48:12.530Z,27.55
2022-10-19T12:50:52.619Z,27.36
2022-10-19T12:53:31.273Z,27.34
2022-10-19T12:56:06.241Z,27.38
2022-10-19T12:58:46.576Z,27.34
2022-10-19T13:01:21.883Z,27.33
2022-10-19T13:03:53.407Z,27.24
2022-10-19T13:06:44.988Z,26.79
2022-10-19T13:09:27.378Z,26.66
2022-10-19T13:12:25.665Z,26.51
2022-10-19T13:14:58.861Z,26.43
2022-10-19T13:17:40.813Z,26.40
2022-10-19T13:20:13.718Z,26.46
2022-10-19T13:22:42.068Z,26.32
2022-10-19T13:25:23.810Z,26.23
2022-10-19T13:27:52.085Z,26.30
2022-10-19T13:30:40.827Z,26.47
2022-10-19T13:33:25.412Z,26.64
2022-10-19T13:36:08.263Z,26.86
2022-10-19T13:38:38.968Z,26.93
2022-10-19T13:41:14.950Z,27.16
2022-10-19T13:43:44.162Z,27.68
2022-10-19T13:46:13.934Z,27.91
2022-10-19T13:49:02.460Z,28.71
2022-10-19T13:51:36.112Z,29.29
2022-10-19T13:54:27.317Z,29.55
2022-10-19T13:57:09.117Z,29.27
2022-10-19T14:00:03.454Z,28.80
2022-10-19T14:02:51.048Z,28.37
2022-10-19T14:05:20.296Z,28.44
2022-10-19T14:07:55.607Z,28.33
2022-10-19T14:10:28.302Z,27.89
2022-10-19T14:13:03.563Z,27.97
2022-10-19T14:15:35.508Z,28.33
2022-10-19T14:18:03.832Z,28.73
2022-10-19T14:20:39.057Z,28.31
2022-10-19T14:23:34.372Z,28.51
2022-10-19T14:26:13.765Z,28.82
2022-10-19T14:28:42.985Z,28.99
2022-10-19T14:31:19.320Z,29.09
2022-10-19T14:33:48.216Z,29.25
2022-10-19T14:36:17.848Z,29.28
2022-10-19T14:38:49.836Z,28.96
2022-10-19T14:41:31.575Z,28.70
2022-10-19T14:44:02.765Z,28.54
2022-10-19T14:46:34.759Z,28.26
2022-10-19T14:49:04.550Z,27.90
2022-10-19T14:51:46.448Z,27.23
2022-10-19T14:54:37.984Z,26.75
2022-10-19T14:57:15.763Z,26.35
2022-10-19T14:59:54.286Z,26.12
2022-10-19T15:02:42.921Z,25.96
2022-10-19T15:05:22.048Z,25.84
2022-10-19T15:07:49.742Z,25.57
2022-10-19T15:10:40.981Z,25.31
2022-10-19T15:13:16.480Z,25.21
2022-10-19T15:15:43.235Z,25.12
2022-10-19T15:18:36.726Z,25.13
2022-10-19T15:21:23.497Z,25.06
2022-10-19T15:23:52.276Z,24.98
2022-10-19T15:26:27.463Z,24.92
2022-10-19T15:29:06.846Z,24.85
2022-10-19T15:31:33.494Z,24.74
2022-10-19T15:34:03.916Z,24.56
2022-10-19T15:36:33.660Z,24.60
2022-10-19T15:39:18.438Z,24.53
2022-10-19T15:41:52.489Z,24.46
2022-10-19T15:44:33.889Z,24.41
2022-10-19T15:47:24.076Z,24.28
2022-10-19T15:49:55.683Z,24.19
2022-10-19T15:52:23.421Z,24.22
2022-10-19T15:54:52.361Z,24.06
2022-10-19T15:57:31.363Z,24.02
2022-10-19T16:00:02.112Z,23.97
2022-10-19T16:02:30.841Z,23.77
2022-10-19T16:04:57.479Z,23.70
2022-10-19T16:07:35.902Z,23.54
2022-10-19T16:10:02.957Z,23.35
2022-10-19T16:12:32.770Z,23.28
2022-10-19T16:15:01.634Z,23.24
2022-10-19T16:17:28.268Z,23.00
2022-10-19T16:19:54.812Z,23.06
2022-10-19T16:22:21.358Z,23.00
2022-10-19T16:24:47.880Z,22.90
2022-10-19T16:27:16.497Z,22.69
2022-10-19T16:29:45.408Z,22.65
2022-10-19T16:32:12.018Z,22.60
2022-10-19T16:34:38.818Z,22.54
2022-10-19T16:37:07.088Z,22.48
2022-10-19T16:39:34.553Z,22.36
2022-10-19T16:42:02.042Z,22.24
2022-10-19T16:44:30.955Z,22.23
2022-10-19T16:47:01.095Z,21.86
2022-10-19T16:49:27.709Z,21.96
2022-10-19T16:51:57.256Z,21.81
2022-10-19T16:54:33.895Z,21.75
2022-10-19T16:57:08.746Z,21.59
2022-10-19T16:59:36.252Z,21.61
2022-10-19T17:02:02.764Z,21.45
2022-10-19T17:04:33.261Z,21.40
2022-10-19T17:07:03.323Z,21.25
2022-10-19T17:09:52.309Z,21.09
2022-10-19T17:12:19.296Z,21.04
2022-10-19T17:14:45.830Z,21.01
2022-10-19T17:17:12.893Z,20.82
2022-10-19T17:19:39.598Z,20.90
2022-10-19T17:22:06.269Z,20.92
2022-10-19T17:24:33.070Z,20.82
2022-10-19T17:27:08.287Z,20.85
2022-10-19T17:29:34.841Z,20.78
2022-10-19T17:32:01.388Z,20.76
2022-10-19T17:34:28.170Z,20.73
2022-10-19T17:36:54.965Z,20.63
2022-10-19T17:39:25.846Z,20.79
2022-10-19T17:42:01.435Z,20.78
2022-10-19T17:44:30.429Z,20.65
2022-10-19T17:46:57.096Z,20.70
2022-10-19T17:49:23.646Z,20.64
2022-10-19T17:51:52.601Z,20.61
2022-10-19T17:54:19.344Z,20.52
2022-10-19T17:56:46.166Z,20.30
2022-10-19T17:59:13.427Z,20.47
2022-10-19T18:01:40.052Z,20.39
2022-10-19T18:04:06.863Z,20.41
2022-10-19T18:06:36.253Z,20.23
2022-10-19T18:09:08.661Z,20.51
2022-10-19T18:11:45.047Z,20.31
2022-10-19T18:14:12.710Z,20.35
2022-10-19T18:16:46.559Z,20.44
2022-10-19T18:19:14.927Z,20.59
2022-10-19T18:21:43.827Z,20.56
2022-10-19T18:24:20.315Z,20.58
2022-10-19T18:26:48.988Z,20.61
2022-10-19T18:29:24.354Z,20.56
2022-10-19T18:31:53.843Z,20.47
2022-10-19T18:34:26.026Z,20.48
2022-10-19T18:36:53.026Z,20.51
2022-10-19T18:39:19.973Z,20.53
2022-10-19T18:41:48.264Z,20.55
2022-10-19T18:44:14.894Z,20.44
2022-10-19T18:46:41.656Z,20.47
2022-10-19T18:49:09.107Z,20.29
2022-10-19T18:51:36.578Z,20.21
2022-10-19T18:54:05.886Z,20.25
2022-10-19T18:56:41.579Z,20.24
2022-10-19T18:59:08.235Z,20.18
2022-10-19T19:01:38.741Z,20.09
2022-10-19T19:04:10.117Z,20.41
2022-10-19T19:06:39.978Z,20.50
2022-10-19T19:09:10.133Z,20.46
2022-10-19T19:11:41.257Z,20.36
2022-10-19T19:14:16.617Z,20.41
2022-10-19T19:16:44.735Z,20.30
2022-10-19T19:19:13.292Z,20.17
2022-10-19T19:21:43.911Z,20.09
2022-10-19T19:24:19.718Z,19.91
2022-10-19T19:26:50.553Z,19.99
2022-10-19T19:29:19.098Z,20.15
2022-10-19T19:31:47.418Z,20.22
2022-10-19T19:34:14.441Z,20.37
2022-10-19T19:36:47.120Z,20.38
2022-10-19T19:39:19.468Z,20.49
2022-10-19T19:41:47.037Z,20.32
2022-10-19T19:44:13.642Z,20.39
2022-10-19T19:46:40.258Z,20.23
2022-10-19T19:49:09.778Z,20.37
2022-10-19T19:51:39.621Z,20.25
2022-10-19T19:54:08.458Z,20.14
2022-10-19T19:56:40.043Z,20.31
2022-10-19T19:59:09.126Z,20.19
2022-10-19T20:01:38.648Z,20.41
2022-10-19T20:04:08.874Z,20.22
2022-10-19T20:06:40.399Z,20.31
2022-10-19T20:09:10.898Z,20.50
2022-10-19T20:11:42.688Z,20.40
2022-10-19T20:14:09.829Z,20.38
2022-10-19T20:16:40.709Z,20.30
2022-10-19T20:19:12.782Z,20.37
2022-10-19T20:21:42.848Z,20.44
2022-10-19T20:24:09.707Z,20.33
2022-10-19T20:26:39.496Z,20.49
2022-10-19T20:29:08.867Z,20.69
2022-10-19T20:31:39.615Z,20.68
2022-10-19T20:34:12.327Z,20.80
2022-10-19T20:36:41.708Z,20.65
2022-10-19T20:39:09.744Z,20.54
2022-10-19T20:41:38.501Z,20.77
2022-10-19T20:44:05.193Z,20.85
2022-10-19T20:46:32.066Z,20.82
2022-10-19T20:49:00.922Z,20.97
2022-10-19T20:51:44.808Z,20.69
2022-10-19T20:54:13.138Z,20.96
2022-10-19T20:56:50.791Z,20.79
2022-10-19T20:59:22.471Z,20.87
2022-10-19T21:01:51.132Z,20.96
2022-10-19T21:04:17.966Z,20.90
2022-10-19T21:06:47.471Z,20.74
2022-10-19T21:09:16.418Z,20.77
2022-10-19T21:11:44.736Z,20.96
2022-10-19T21:14:25.464Z,20.82
2022-10-19T21:16:56.716Z,20.92
2022-10-19T21:19:25.819Z,20.77
2022-10-19T21:21:57.906Z,20.76
2022-10-19T21:24:28.115Z,20.70
2022-10-19T21:26:54.923Z,20.83
2022-10-19T21:29:21.967Z,20.89
2022-10-19T21:31:51.840Z,20.89
2022-10-19T21:34:21.798Z,20.88
2022-10-19T21:36:48.820Z,20.76
2022-10-19T21:39:15.930Z,20.66
2022-10-19T21:41:44.185Z,20.67
2022-10-19T21:44:14.545Z,20.60
2022-10-19T21:46:46.836Z,20.88
2022-10-19T21:49:13.716Z,20.81
2022-10-19T21:51:50.812Z,20.88
2022-10-19T21:54:24.964Z,20.87
2022-10-19T21:56:53.197Z,20.90
2022-10-19T21:59:19.902Z,20.74
2022-10-19T22:01:46.575Z,21.02
2022-10-19T22:04:15.891Z,20.85
2022-10-19T22:06:43.285Z,20.51
2022-10-19T22:09:13.817Z,20.86
2022-10-19T22:11:43.337Z,20.76
2022-10-19T22:14:14.004Z,20.90
2022-10-19T22:16:43.707Z,20.64
2022-10-19T22:19:10.684Z,20.98
2022-10-19T22:24:13.495Z,21.03
2022-10-19T22:26:43.895Z,20.95
2022-10-19T22:29:10.895Z,20.90
2022-10-19T22:31:37.676Z,20.94
2022-10-19T22:34:06.209Z,20.90
2022-10-19T22:36:32.743Z,20.89
2022-10-19T22:38:59.459Z,20.86
2022-10-19T22:41:25.974Z,20.96
2022-10-19T22:43:52.484Z,20.71
2022-10-19T22:46:19.021Z,20.56
2022-10-19T22:48:45.577Z,20.48
2022-10-19T22:51:12.177Z,20.29
2022-10-19T22:53:38.736Z,20.76
2022-10-19T22:56:05.623Z,20.68
2022-10-19T22:58:32.245Z,20.54
2022-10-19T23:01:10.941Z,20.72
2022-10-19T23:03:40.241Z,20.73
2022-10-19T23:06:08.415Z,20.62
2022-10-19T23:08:35.226Z,20.54
2022-10-19T23:11:01.811Z,20.65
2022-10-19T23:13:28.650Z,20.43
2022-10-19T23:15:55.243Z,20.17
2022-10-19T23:18:21.810Z,20.04
2022-10-19T23:21:00.104Z,20.28
2022-10-19T23:23:27.674Z,20.27
2022-10-19T23:26:18.805Z,20.27
2022-10-19T23:28:47.708Z,20.33
2022-10-19T23:31:18.427Z,20.11
2022-10-19T23:33:45.784Z,20.16
2022-10-19T23:36:18.107Z,20.36
2022-10-19T23:38:48.561Z,20.46
2022-10-19T23:41:18.809Z,20.26
2022-10-19T23:43:45.811Z,20.33
2022-10-19T23:46:12.733Z,19.95
2022-10-19T23:48:39.752Z,20.21
2022-10-19T23:51:11.842Z,20.27
2022-10-19T23:53:41.469Z,20.42
2022-10-19T23:56:11.974Z,20.20
2022-10-19T23:58:38.523Z,20.15
